Lakeside Park, Kentucky
Current Conditions -  °F | °C
As of 11:53 AM on Monday 22 Dec 2014 (Local Time) from KI69 Reporting Station
Clear Clear  
Wind Chill: 44°   Ceiling: Unl
Heat Index: 46°   Visibility: 10mi
Dew Point: 34°   Wind: 6mph
Humidity: 62%   Direction: 140°SE
Pressure: 29.95"   Gusts: NA
Location:  39.0279°N, 84.5635°W
Report Text: KI69 221653Z AUTO 14005KT 10SM CLR 08/01 A2995 RMK AO1
Loading
Personal Weather Stations






























Interactive Weather Map New forecast layout! Learn more

10-Day Weather Forecast

Advertisements
Track Severe Weather on mobile